Terminal Aerodrome Forecast
Issued by NWS Des Moines, IA

Home | Current Version | Previous Version | Text Only | Print | Product List | Glossary On
Versions: 1 2 3 4 5 6 7 8 9 10 11 12 13 14 15 16 17 18 19 20 21 22 23 24 25 26 27 28 29 30 31 32 33 34 35 36 37 38 39 40 41
000
FTUS43 KDMX 310534
TAFDSM
TAF
KDSM 310534Z 3106/0106 21007KT P6SM BKN300
     FM311400 23007KT 6SM BR SCT021 BKN060 OVC100
     FM311700 24008KT 6SM -SHRA BR OVC020
     FM312000 15006KT 2SM -RASN BR OVC012
     FM010200 09010KT 1SM -SN OVC007=

USA.gov is the U.S. government's official web portal to all federal, state and local government web resources and services.